Terminal Aerodrome Forecast
Issued by NWS

Home | Current Version | Previous Version | Text Only | Print | Product List | Glossary On
Versions: 1 2 3 4 5 6 7 8 9 10 11 12 13 14 15
000
FTUS41 KCAR 051342 AAA
TAFFVE
TAF AMD
KFVE 051342Z 0514/0612 30015G25KT P6SM BKN030
     FM051500 29015G25KT P6SM SCT025 BKN050
     FM060000 30013KT P6SM SKC=

USA.gov is the U.S. government's official web portal to all federal, state and local government web resources and services.